Time;durP1;ratioP1;P1;durP2;ratioP2;P2;SDS_P1;SDS_P2;PMS_P1;PMS_P2;Temp;Humidity;BMP_temperature;BMP_pressure;BME280_temperature;BME280_humidity;BME280_pressure;Samples;Min_cycle;Max_cycle;Signal;HPM_P1;HPM_P2
2021/04/26 00:01:08;;;;;;;7.50;3.10;;;;;;;;;;5055708;28;20797;-69
2021/04/26 00:03:34;;;;;;;4.63;3.13;;;;;;;;;;5055513;28;20968;-69
2021/04/26 00:06:00;;;;;;;5.90;4.17;;;;;;;;;;5056546;28;20781;-69
2021/04/26 00:08:27;;;;;;;7.77;3.10;;;;;;;;;;5055284;28;20453;-69
2021/04/26 00:10:53;;;;;;;8.63;3.80;;;;;;;;;;5056446;28;20763;-69
2021/04/26 00:13:19;;;;;;;7.00;3.20;;;;;;;;;;5055056;28;20454;-69
2021/04/26 00:15:45;;;;;;;6.53;3.77;;;;;;;;;;5054325;28;20472;-69
2021/04/26 00:18:11;;;;;;;6.43;3.20;;;;;;;;;;5054899;28;20458;-69
2021/04/26 00:20:38;;;;;;;5.80;3.20;;;;;;;;;;5056549;28;20493;-69
2021/04/26 00:23:04;;;;;;;7.80;3.23;;;;;;;;;;5055477;28;20445;-70
2021/04/26 00:25:30;;;;;;;5.77;3.87;;;;;;;;;;5036572;28;20804;-69
2021/04/26 00:27:58;;;;;;;7.43;3.67;;;;;;;;;;5049898;28;20438;-69
2021/04/26 00:30:25;;;;;;;6.03;3.43;;;;;;;;;;5054534;28;20402;-69
2021/04/26 00:32:52;;;;;;;5.33;3.17;;;;;;;;;;5054818;28;20456;-69
2021/04/26 00:35:18;;;;;;;4.67;3.40;;;;;;;;;;5055829;28;20492;-70
2021/04/26 00:37:45;;;;;;;6.30;3.93;;;;;;;;;;5039238;28;20426;-69
2021/04/26 00:40:11;;;;;;;6.00;3.83;;;;;;;;;;5036576;28;20900;-70
2021/04/26 00:42:37;;;;;;;5.50;4.10;;;;;;;;;;5046759;28;20464;-69
2021/04/26 00:45:09;;;;;;;5.87;3.90;;;;;;;;;;5056396;28;20406;-69
2021/04/26 00:47:39;;;;;;;4.33;3.40;;;;;;;;;;5054922;28;20831;-69
2021/04/26 00:50:07;;;;;;;8.30;3.70;;;;;;;;;;5036087;28;20955;-69
2021/04/26 00:52:33;;;;;;;7.70;4.10;;;;;;;;;;5035941;28;20928;-69
2021/04/26 00:54:59;;;;;;;12.33;4.03;;;;;;;;;;5035857;28;20438;-69
2021/04/26 00:57:26;;;;;;;4.70;3.97;;;;;;;;;;5035905;28;20458;-69
2021/04/26 00:59:52;;;;;;;5.50;3.93;;;;;;;;;;5035724;28;20839;-69
2021/04/26 01:02:18;;;;;;;4.63;3.07;;;;;;;;;;5042512;28;20433;-69
2021/04/26 01:04:44;;;;;;;6.77;3.40;;;;;;;;;;5055381;28;20979;-69
2021/04/26 01:07:10;;;;;;;4.30;3.33;;;;;;;;;;5054572;28;20432;-69
2021/04/26 01:09:36;;;;;;;7.73;3.53;;;;;;;;;;5055318;28;20455;-69
2021/04/26 01:12:15;;;;;;;5.30;4.10;;;;;;;;;;5054508;28;20433;-69
2021/04/26 01:14:49;;;;;;;7.20;3.90;;;;;;;;;;5055707;28;20476;-69
2021/04/26 01:17:21;;;;;;;6.40;4.57;;;;;;;;;;5049080;28;20454;-69
2021/04/26 01:19:53;;;;;;;5.03;3.80;;;;;;;;;;5035594;28;20419;-69
2021/04/26 01:22:29;;;;;;;6.03;3.70;;;;;;;;;;5045001;28;20426;-69
2021/04/26 01:25:01;;;;;;;6.37;3.80;;;;;;;;;;5055317;28;20802;-69
2021/04/26 01:27:42;;;;;;;4.50;3.37;;;;;;;;;;5055020;28;20425;-69
2021/04/26 01:30:08;;;;;;;7.10;3.27;;;;;;;;;;5054696;28;20409;-70
2021/04/26 01:32:42;;;;;;;5.20;4.00;;;;;;;;;;5052695;28;20422;-69
2021/04/26 01:35:09;;;;;;;8.97;3.83;;;;;;;;;;5054568;28;20453;-70
2021/04/26 01:37:36;;;;;;;6.90;4.67;;;;;;;;;;5053763;28;20495;-69
2021/04/26 01:40:04;;;;;;;12.53;4.33;;;;;;;;;;5054286;28;20413;-70
2021/04/26 01:42:32;;;;;;;6.67;3.70;;;;;;;;;;5053330;28;21251;-69
2021/04/26 01:44:59;;;;;;;7.83;3.67;;;;;;;;;;5054422;28;20400;-69
2021/04/26 01:47:25;;;;;;;6.10;4.27;;;;;;;;;;5053130;28;20444;-69
2021/04/26 01:49:52;;;;;;;5.53;4.00;;;;;;;;;;5054358;28;20406;-70
2021/04/26 01:52:18;;;;;;;8.77;4.60;;;;;;;;;;5053431;28;20433;-69
2021/04/26 01:54:45;;;;;;;7.00;4.53;;;;;;;;;;5054092;28;20465;-70
2021/04/26 01:57:11;;;;;;;9.40;4.60;;;;;;;;;;5054292;28;20402;-70
2021/04/26 01:59:37;;;;;;;7.33;4.47;;;;;;;;;;5052264;28;20426;-69
2021/04/26 02:02:04;;;;;;;5.10;3.67;;;;;;;;;;5050277;28;20414;-69
2021/04/26 02:04:31;;;;;;;7.20;3.87;;;;;;;;;;5047861;28;20449;-69
2021/04/26 02:06:59;;;;;;;5.90;4.20;;;;;;;;;;5053909;28;20405;-70
2021/04/26 02:09:25;;;;;;;6.13;4.20;;;;;;;;;;5052881;28;20760;-70
2021/04/26 02:11:52;;;;;;;6.77;3.90;;;;;;;;;;5054402;28;20877;-70
2021/04/26 02:14:18;;;;;;;7.77;4.60;;;;;;;;;;5041424;28;20943;-70
2021/04/26 02:16:44;;;;;;;7.13;4.10;;;;;;;;;;5033857;28;20410;-69
2021/04/26 02:19:11;;;;;;;5.53;4.23;;;;;;;;;;5043640;28;20432;-70
2021/04/26 02:21:40;;;;;;;7.00;4.10;;;;;;;;;;5053998;28;20430;-70
2021/04/26 02:24:06;;;;;;;8.10;4.37;;;;;;;;;;5052771;28;20446;-70
2021/04/26 02:26:33;;;;;;;7.83;3.77;;;;;;;;;;5053895;28;20410;-70
2021/04/26 02:28:59;;;;;;;7.80;4.40;;;;;;;;;;5052500;28;20433;-69
2021/04/26 02:31:26;;;;;;;4.73;3.70;;;;;;;;;;5053935;28;20406;-70
2021/04/26 02:33:54;;;;;;;7.30;3.90;;;;;;;;;;5052261;28;20492;-69
2021/04/26 02:36:31;;;;;;;9.07;4.50;;;;;;;;;;5052031;28;20468;-69
2021/04/26 02:39:00;;;;;;;6.20;4.07;;;;;;;;;;5052579;28;20421;-69
2021/04/26 02:41:30;;;;;;;7.67;4.67;;;;;;;;;;5053349;28;20406;-70
2021/04/26 02:43:58;;;;;;;6.30;3.83;;;;;;;;;;5047845;28;20461;-69
2021/04/26 02:46:25;;;;;;;9.03;4.27;;;;;;;;;;5033723;28;20422;-70
2021/04/26 02:48:52;;;;;;;9.63;3.80;;;;;;;;;;5033509;28;20436;-69
2021/04/26 02:51:19;;;;;;;7.90;4.27;;;;;;;;;;5033334;28;20410;-70
2021/04/26 02:53:46;;;;;;;6.07;3.67;;;;;;;;;;5037732;28;20495;-70
2021/04/26 02:56:14;;;;;;;7.40;3.87;;;;;;;;;;5051868;28;20545;-69
2021/04/26 02:58:42;;;;;;;10.37;4.53;;;;;;;;;;5046913;28;20429;-69
2021/04/26 03:01:09;;;;;;;6.90;4.70;;;;;;;;;;5033295;28;20438;-70
2021/04/26 03:03:36;;;;;;;7.07;4.80;;;;;;;;;;5032999;28;20450;-69
2021/04/26 03:06:03;;;;;;;6.33;4.37;;;;;;;;;;5033472;28;20413;-69
2021/04/26 03:08:29;;;;;;;7.93;4.50;;;;;;;;;;5033952;28;20434;-69
2021/04/26 03:10:56;;;;;;;7.50;4.07;;;;;;;;;;5034688;28;20405;-69
2021/04/26 03:13:23;;;;;;;5.10;3.70;;;;;;;;;;5034174;28;20455;-69
2021/04/26 03:15:49;;;;;;;12.47;4.40;;;;;;;;;;5034256;28;20941;-69
2021/04/26 03:18:16;;;;;;;5.00;3.80;;;;;;;;;;5034221;28;20395;-69
2021/04/26 03:20:43;;;;;;;7.53;4.70;;;;;;;;;;5034221;28;20940;-69
2021/04/26 03:23:10;;;;;;;6.30;4.37;;;;;;;;;;5034349;28;20498;-69
2021/04/26 03:25:37;;;;;;;10.80;5.27;;;;;;;;;;5051364;28;20430;-69
2021/04/26 03:28:04;;;;;;;7.93;4.43;;;;;;;;;;5053119;28;20510;-69
2021/04/26 03:30:31;;;;;;;5.63;4.90;;;;;;;;;;5053290;28;20425;-69
2021/04/26 03:32:57;;;;;;;6.77;4.50;;;;;;;;;;5054958;28;20421;-69
2021/04/26 03:35:24;;;;;;;7.73;4.87;;;;;;;;;;5038073;28;20475;-69
2021/04/26 03:37:51;;;;;;;9.90;4.47;;;;;;;;;;5034420;28;20407;-70
2021/04/26 03:40:18;;;;;;;7.20;4.10;;;;;;;;;;5052156;28;20501;-70
2021/04/26 03:42:45;;;;;;;7.63;4.37;;;;;;;;;;5047511;28;20526;-69
2021/04/26 03:45:13;;;;;;;9.60;5.40;;;;;;;;;;5050639;28;20444;-70
2021/04/26 03:47:39;;;;;;;5.73;4.60;;;;;;;;;;5056183;28;20401;-69
2021/04/26 03:50:06;;;;;;;12.33;4.80;;;;;;;;;;5053807;28;20441;-69
2021/04/26 03:52:32;;;;;;;9.00;5.13;;;;;;;;;;5053860;28;20405;-69
2021/04/26 03:54:58;;;;;;;7.30;4.30;;;;;;;;;;5052905;28;20461;-69
2021/04/26 03:57:24;;;;;;;7.57;4.27;;;;;;;;;;5054069;28;20409;-69
2021/04/26 03:59:50;;;;;;;7.50;4.17;;;;;;;;;;5050503;28;20433;-69
2021/04/26 04:02:16;;;;;;;4.53;4.07;;;;;;;;;;5055306;28;20402;-69
2021/04/26 04:04:42;;;;;;;13.80;4.77;;;;;;;;;;5056243;28;20460;-69
2021/04/26 04:07:08;;;;;;;8.70;4.20;;;;;;;;;;5058535;28;20413;-69
2021/04/26 04:09:34;;;;;;;11.57;4.27;;;;;;;;;;5049830;28;20434;-69
2021/04/26 04:12:00;;;;;;;9.57;5.23;;;;;;;;;;5057291;28;20433;-70
2021/04/26 04:14:26;;;;;;;5.90;4.23;;;;;;;;;;5054109;28;20448;-69
2021/04/26 04:16:52;;;;;;;7.23;5.10;;;;;;;;;;5050795;28;20444;-69
2021/04/26 04:19:18;;;;;;;8.07;4.97;;;;;;;;;;5055216;28;20504;-69
2021/04/26 04:21:44;;;;;;;7.30;5.33;;;;;;;;;;5056126;28;20399;-70
2021/04/26 04:24:10;;;;;;;8.57;5.13;;;;;;;;;;5052274;28;20449;-69
2021/04/26 04:26:36;;;;;;;6.00;5.10;;;;;;;;;;5038330;28;20410;-69
2021/04/26 04:29:02;;;;;;;8.30;4.37;;;;;;;;;;5040854;28;20793;-69
2021/04/26 04:31:29;;;;;;;6.60;4.63;;;;;;;;;;5058376;28;20413;-69
2021/04/26 04:33:55;;;;;;;12.37;5.70;;;;;;;;;;5056881;28;20531;-69
2021/04/26 04:36:21;;;;;;;7.43;4.87;;;;;;;;;;5057805;28;20855;-69
2021/04/26 04:38:47;;;;;;;6.10;4.53;;;;;;;;;;5056327;28;20750;-70
2021/04/26 04:41:13;;;;;;;8.27;4.60;;;;;;;;;;5037374;28;20435;-69
2021/04/26 04:43:39;;;;;;;6.83;4.97;;;;;;;;;;5035979;28;20437;-70
2021/04/26 04:46:06;;;;;;;7.47;4.50;;;;;;;;;;5050479;28;20437;-69
2021/04/26 04:48:32;;;;;;;5.60;4.67;;;;;;;;;;5055675;28;20406;-69
2021/04/26 04:50:58;;;;;;;8.73;5.17;;;;;;;;;;5054472;28;20433;-69
2021/04/26 04:53:24;;;;;;;11.43;5.50;;;;;;;;;;5055226;28;20515;-69
2021/04/26 04:55:50;;;;;;;11.00;5.60;;;;;;;;;;5053985;28;20579;-70
2021/04/26 04:58:16;;;;;;;11.10;5.73;;;;;;;;;;5055354;28;20501;-70
2021/04/26 05:00:42;;;;;;;7.77;5.00;;;;;;;;;;5042091;28;20484;-70
2021/04/26 05:03:08;;;;;;;7.77;5.10;;;;;;;;;;5035389;28;20427;-70
2021/04/26 05:05:34;;;;;;;9.30;5.50;;;;;;;;;;5043040;28;20520;-69
2021/04/26 05:08:01;;;;;;;6.30;5.20;;;;;;;;;;5054257;28;20891;-69
2021/04/26 05:10:27;;;;;;;9.43;7.40;;;;;;;;;;5054310;28;20426;-70
2021/04/26 05:12:53;;;;;;;7.27;5.10;;;;;;;;;;5055337;28;20450;-70
2021/04/26 05:15:19;;;;;;;7.17;4.80;;;;;;;;;;5053422;28;20466;-69
2021/04/26 05:17:45;;;;;;;7.13;4.93;;;;;;;;;;5054960;28;20882;-70
2021/04/26 05:20:12;;;;;;;8.77;5.50;;;;;;;;;;5051399;28;20454;-69
2021/04/26 05:22:38;;;;;;;11.30;5.10;;;;;;;;;;5034990;28;20437;-70
2021/04/26 05:25:05;;;;;;;7.50;4.87;;;;;;;;;;5035997;28;20408;-69
2021/04/26 05:27:31;;;;;;;9.10;5.97;;;;;;;;;;5053667;28;20421;-70
2021/04/26 05:29:57;;;;;;;9.53;6.40;;;;;;;;;;5053710;28;20496;-69
2021/04/26 05:32:23;;;;;;;6.43;5.40;;;;;;;;;;5055020;28;20804;-70
2021/04/26 05:34:49;;;;;;;7.13;5.03;;;;;;;;;;5054456;28;20453;-70
2021/04/26 05:37:15;;;;;;;6.70;4.90;;;;;;;;;;5034778;28;20484;-69
2021/04/26 05:39:42;;;;;;;11.70;5.23;;;;;;;;;;5034588;28;20460;-70
2021/04/26 05:42:08;;;;;;;7.37;6.10;;;;;;;;;;5034654;28;20434;-69
2021/04/26 05:44:34;;;;;;;10.40;5.57;;;;;;;;;;5034542;28;20511;-70
2021/04/26 05:47:00;;;;;;;14.67;7.00;;;;;;;;;;5051059;28;20512;-70
2021/04/26 05:49:26;;;;;;;14.27;6.53;;;;;;;;;;5054657;28;20426;-70
2021/04/26 05:51:52;;;;;;;15.03;6.77;;;;;;;;;;5053011;28;20421;-69
2021/04/26 05:54:19;;;;;;;15.40;6.63;;;;;;;;;;5052823;28;20458;-70
2021/04/26 05:56:45;;;;;;;14.13;7.30;;;;;;;;;;5038687;28;20547;-70
2021/04/26 05:59:11;;;;;;;9.43;5.80;;;;;;;;;;5034650;28;20461;-70
2021/04/26 06:01:37;;;;;;;7.97;5.07;;;;;;;;;;5034287;28;20923;-69
2021/04/26 06:04:03;;;;;;;16.57;5.33;;;;;;;;;;5034216;28;20903;-70
2021/04/26 06:06:29;;;;;;;8.27;4.57;;;;;;;;;;5045129;28;20439;-69
2021/04/26 06:08:56;;;;;;;7.63;4.83;;;;;;;;;;5054073;28;20405;-69
2021/04/26 06:11:22;;;;;;;8.83;4.00;;;;;;;;;;5043173;28;20431;-70
2021/04/26 06:13:48;;;;;;;8.77;6.47;;;;;;;;;;5034242;28;20423;-70
2021/04/26 06:16:14;;;;;;;9.30;4.83;;;;;;;;;;5042847;28;20461;-70
2021/04/26 06:18:40;;;;;;;13.03;4.80;;;;;;;;;;5051258;28;20410;-69
2021/04/26 06:21:06;;;;;;;5.10;3.90;;;;;;;;;;5041369;28;20421;-70
2021/04/26 06:23:32;;;;;;;9.80;5.30;;;;;;;;;;5053679;28;20450;-70
2021/04/26 06:25:58;;;;;;;7.50;4.43;;;;;;;;;;5051669;28;20571;-70
2021/04/26 06:28:25;;;;;;;21.40;5.40;;;;;;;;;;5048747;28;20798;-70
2021/04/26 06:30:51;;;;;;;6.60;4.40;;;;;;;;;;5037417;28;20430;-70
2021/04/26 06:33:17;;;;;;;11.13;5.20;;;;;;;;;;5053617;28;20476;-70
2021/04/26 06:35:43;;;;;;;7.33;4.30;;;;;;;;;;5052484;28;20544;-70
2021/04/26 06:38:10;;;;;;;8.50;4.47;;;;;;;;;;5053549;28;20429;-70
2021/04/26 06:40:36;;;;;;;8.20;4.80;;;;;;;;;;5053361;28;20398;-69
2021/04/26 06:43:02;;;;;;;11.33;4.80;;;;;;;;;;5053359;28;20444;-70
2021/04/26 06:45:28;;;;;;;7.73;4.50;;;;;;;;;;5053764;28;20430;-70
2021/04/26 06:47:55;;;;;;;7.60;4.60;;;;;;;;;;5036322;28;20430;-70
2021/04/26 06:50:21;;;;;;;11.03;4.87;;;;;;;;;;5034299;28;20771;-70
2021/04/26 06:52:48;;;;;;;7.40;5.23;;;;;;;;;;5047809;28;20523;-70
2021/04/26 06:55:14;;;;;;;7.20;4.57;;;;;;;;;;5054039;28;20476;-70
2021/04/26 06:57:40;;;;;;;7.87;4.20;;;;;;;;;;5052894;28;20516;-70
2021/04/26 07:00:07;;;;;;;8.07;4.20;;;;;;;;;;5052745;28;20427;-70
2021/04/26 07:02:33;;;;;;;6.83;4.00;;;;;;;;;;5052756;28;20828;-70
2021/04/26 07:05:00;;;;;;;9.20;4.43;;;;;;;;;;5048652;28;20430;-70
2021/04/26 07:07:26;;;;;;;6.33;4.67;;;;;;;;;;5045182;28;20440;-70
2021/04/26 07:09:52;;;;;;;8.63;4.00;;;;;;;;;;5051154;28;20456;-70
2021/04/26 07:12:19;;;;;;;11.23;5.00;;;;;;;;;;5050601;28;20833;-69
2021/04/26 07:14:45;;;;;;;7.23;4.70;;;;;;;;;;5049951;28;20491;-69
2021/04/26 07:17:11;;;;;;;6.80;4.80;;;;;;;;;;5046800;28;20429;-69
2021/04/26 07:19:37;;;;;;;10.70;5.10;;;;;;;;;;5037706;28;20561;-70
2021/04/26 07:22:03;;;;;;;6.40;5.03;;;;;;;;;;5040254;28;20505;-69
2021/04/26 07:24:29;;;;;;;8.13;4.70;;;;;;;;;;5050978;28;20430;-70
2021/04/26 07:26:56;;;;;;;7.10;4.83;;;;;;;;;;5051701;28;20987;-70
2021/04/26 07:29:22;;;;;;;9.50;5.30;;;;;;;;;;5052231;28;20784;-71
2021/04/26 07:31:48;;;;;;;10.73;4.93;;;;;;;;;;5051798;28;20817;-71
2021/04/26 07:34:14;;;;;;;8.60;4.50;;;;;;;;;;5047661;28;20517;-70
2021/04/26 07:36:40;;;;;;;6.83;4.17;;;;;;;;;;5045315;28;20496;-70
2021/04/26 07:39:07;;;;;;;9.80;4.83;;;;;;;;;;5051949;28;20778;-70
2021/04/26 07:41:33;;;;;;;11.40;5.10;;;;;;;;;;5053673;28;20430;-70
2021/04/26 07:44:00;;;;;;;10.53;4.23;;;;;;;;;;5052719;28;20492;-71
2021/04/26 07:46:26;;;;;;;7.20;4.10;;;;;;;;;;5048113;28;20838;-69
2021/04/26 07:48:52;;;;;;;7.37;4.30;;;;;;;;;;5051604;28;20429;-69
2021/04/26 07:51:19;;;;;;;4.90;3.50;;;;;;;;;;5053073;28;20416;-69
2021/04/26 07:53:45;;;;;;;6.47;3.97;;;;;;;;;;5088204;22;20488;-81
2021/04/26 07:56:11;;;;;;;5.83;4.33;;;;;;;;;;5057486;28;20456;-84
2021/04/26 07:58:37;;;;;;;7.70;4.37;;;;;;;;;;5057426;28;20964;-84
2021/04/26 08:01:03;;;;;;;6.17;4.13;;;;;;;;;;5058609;28;20921;-82
2021/04/26 08:03:29;;;;;;;8.50;4.63;;;;;;;;;;5058178;28;20494;-82
2021/04/26 08:05:55;;;;;;;9.73;5.13;;;;;;;;;;5062125;28;20484;-81
2021/04/26 08:08:23;;;;;;;9.43;3.90;;;;;;;;;;5060986;28;20457;-83
2021/04/26 08:10:51;;;;;;;5.03;4.53;;;;;;;;;;5056274;28;20473;-81
2021/04/26 08:13:17;;;;;;;8.60;4.50;;;;;;;;;;5069795;28;20421;-82
2021/04/26 08:15:43;;;;;;;8.27;4.83;;;;;;;;;;5060986;28;20470;-80
2021/04/26 08:18:09;;;;;;;11.60;4.63;;;;;;;;;;5060836;28;20449;-82
2021/04/26 08:20:36;;;;;;;6.20;4.50;;;;;;;;;;5085778;28;20425;-83
2021/04/26 08:23:03;;;;;;;7.43;4.63;;;;;;;;;;5067099;28;20494;-81
2021/04/26 08:25:29;;;;;;;5.67;4.30;;;;;;;;;;5055720;28;20437;-84
2021/04/26 08:27:58;;;;;;;8.03;5.47;;;;;;;;;;5059301;28;20433;-81
2021/04/26 08:30:25;;;;;;;7.80;4.13;;;;;;;;;;5057499;28;20430;-81
2021/04/26 08:32:51;;;;;;;8.57;4.90;;;;;;;;;;5061682;28;20434;-81
2021/04/26 08:35:18;;;;;;;11.50;5.00;;;;;;;;;;5063685;28;22594;-81
2021/04/26 08:37:44;;;;;;;6.07;4.27;;;;;;;;;;5076209;22;20509;-64
2021/04/26 08:40:10;;;;;;;10.50;4.63;;;;;;;;;;5070006;28;22215;-64
2021/04/26 08:42:36;;;;;;;5.93;4.00;;;;;;;;;;5052992;28;20464;-61
2021/04/26 08:45:03;;;;;;;7.30;5.00;;;;;;;;;;5058764;28;20437;-63
2021/04/26 08:47:30;;;;;;;8.07;4.90;;;;;;;;;;5055566;28;20449;-63
2021/04/26 08:49:58;;;;;;;6.60;4.50;;;;;;;;;;5051766;28;20472;-63
2021/04/26 08:52:24;;;;;;;7.68;4.50;;;;;;;;;;5052841;28;20432;-62
2021/04/26 08:54:50;;;;;;;7.20;4.80;;;;;;;;;;5063977;28;20202;-63
2021/04/26 08:57:16;;;;;;;6.90;4.67;;;;;;;;;;5068398;28;20447;-64
2021/04/26 08:59:43;;;;;;;7.30;5.07;;;;;;;;;;5061872;28;21206;-63
2021/04/26 09:02:10;;;;;;;10.70;5.20;;;;;;;;;;5073242;28;20412;-62
2021/04/26 09:04:38;;;;;;;8.60;4.93;;;;;;;;;;5061062;28;20463;-65
2021/04/26 09:07:05;;;;;;;11.23;4.53;;;;;;;;;;5059333;28;20422;-67
2021/04/26 09:09:33;;;;;;;15.03;4.13;;;;;;;;;;5067561;28;20441;-65
2021/04/26 09:11:59;;;;;;;7.20;4.67;;;;;;;;;;5069819;28;20422;-62
2021/04/26 09:14:44;;;;;;;6.90;4.63;;;;;;;;;;5057919;28;20514;-63
2021/04/26 09:17:29;;;;;;;9.17;4.40;;;;;;;;;;5057793;28;20421;-62
2021/04/26 09:19:56;;;;;;;6.10;4.07;;;;;;;;;;5052927;28;20413;-63
2021/04/26 09:22:58;;;;;;;6.23;4.13;;;;;;;;;;5060519;28;20418;-64
2021/04/26 09:25:24;;;;;;;6.20;4.10;;;;;;;;;;5014251;28;20441;-63
2021/04/26 09:27:54;;;;;;;7.73;4.93;;;;;;;;;;5043520;28;20426;-64
2021/04/26 09:30:41;;;;;;;5.03;4.10;;;;;;;;;;5051293;28;20458;-68
2021/04/26 09:33:28;;;;;;;9.00;5.18;;;;;;;;;;5052340;28;20604;-66
2021/04/26 09:35:59;;;;;;;8.70;5.13;;;;;;;;;;5050088;28;20218;-65
2021/04/26 09:38:26;;;;;;;8.07;4.60;;;;;;;;;;5054669;28;20434;-65
2021/04/26 09:41:27;;;;;;;5.50;4.30;;;;;;;;;;5056152;28;20501;-62
2021/04/26 09:44:07;;;;;;;7.03;4.50;;;;;;;;;;4998402;28;20466;-63
2021/04/26 09:46:42;;;;;;;7.23;3.93;;;;;;;;;;5057963;28;20406;-63
2021/04/26 09:49:13;;;;;;;8.13;4.80;;;;;;;;;;5055554;28;20416;-62
2021/04/26 09:51:39;;;;;;;5.87;3.90;;;;;;;;;;5063980;28;20402;-63
2021/04/26 09:54:06;;;;;;;8.43;4.60;;;;;;;;;;5057907;28;20441;-62
2021/04/26 09:56:39;;;;;;;8.67;4.53;;;;;;;;;;5065309;28;20449;-62
2021/04/26 09:59:06;;;;;;;8.80;5.23;;;;;;;;;;5051333;28;20505;-64
2021/04/26 10:01:32;;;;;;;8.43;4.57;;;;;;;;;;5063508;28;20493;-63
2021/04/26 10:03:59;;;;;;;5.27;4.27;;;;;;;;;;5067267;28;20471;-63
2021/04/26 10:06:25;;;;;;;6.43;3.93;;;;;;;;;;5064959;28;20511;-63
2021/04/26 10:08:53;;;;;;;6.80;3.40;;;;;;;;;;5053190;28;20893;-63
2021/04/26 10:11:19;;;;;;;7.33;4.37;;;;;;;;;;5058560;28;20571;-63
2021/04/26 10:13:46;;;;;;;8.37;4.20;;;;;;;;;;5048424;28;20453;-63
2021/04/26 10:16:13;;;;;;;7.00;4.23;;;;;;;;;;5056232;28;20452;-64
2021/04/26 10:18:41;;;;;;;5.70;3.93;;;;;;;;;;5056441;28;20477;-63
2021/04/26 10:21:19;;;;;;;8.33;4.00;;;;;;;;;;5052967;28;20734;-66
2021/04/26 10:23:49;;;;;;;7.40;3.90;;;;;;;;;;5041682;28;20531;-63
2021/04/26 10:26:34;;;;;;;6.20;4.10;;;;;;;;;;5065512;28;20492;-63
2021/04/26 10:29:11;;;;;;;5.13;3.90;;;;;;;;;;5052050;28;20426;-63
2021/04/26 10:31:55;;;;;;;7.43;3.80;;;;;;;;;;5047493;28;20413;-64
2021/04/26 10:34:21;;;;;;;6.57;4.97;;;;;;;;;;5046976;28;20496;-61
2021/04/26 10:36:56;;;;;;;6.07;3.90;;;;;;;;;;5071571;28;20460;-63
2021/04/26 10:39:23;;;;;;;11.27;4.43;;;;;;;;;;5062547;28;20491;-62
2021/04/26 10:41:50;;;;;;;8.60;4.47;;;;;;;;;;5053335;28;20791;-63
2021/04/26 10:44:36;;;;;;;9.57;4.63;;;;;;;;;;5064226;28;20523;-63
2021/04/26 10:47:17;;;;;;;6.70;4.07;;;;;;;;;;5042850;28;20423;-64
2021/04/26 10:49:44;;;;;;;6.17;4.13;;;;;;;;;;5055607;28;20450;-64
2021/04/26 10:52:29;;;;;;;7.67;4.20;;;;;;;;;;5066420;28;20432;-64
2021/04/26 10:54:59;;;;;;;7.13;3.97;;;;;;;;;;5055908;28;20441;-64
2021/04/26 10:57:49;;;;;;;6.40;4.80;;;;;;;;;;5068358;28;20487;-64
2021/04/26 11:00:28;;;;;;;7.13;4.10;;;;;;;;;;5055410;28;20409;-64
2021/04/26 11:03:20;;;;;;;8.70;4.40;;;;;;;;;;5034729;28;20410;-64
2021/04/26 11:05:47;;;;;;;5.97;4.30;;;;;;;;;;5057853;28;20414;-64
2021/04/26 11:11:09;;;;;;;7.30;4.47;;;;;;;;;;5052618;28;20910;-64
2021/04/26 11:13:35;;;;;;;5.57;4.10;;;;;;;;;;5050079;28;20437;-64
2021/04/26 11:16:04;;;;;;;5.60;4.30;;;;;;;;;;5054210;28;20457;-64
2021/04/26 11:18:31;;;;;;;5.70;3.77;;;;;;;;;;5044362;28;20437;-63
2021/04/26 11:20:57;;;;;;;9.60;4.50;;;;;;;;;;5052980;28;20493;-66
2021/04/26 11:23:41;;;;;;;6.57;3.83;;;;;;;;;;5050168;28;20450;-64
2021/04/26 11:26:24;;;;;;;7.60;3.83;;;;;;;;;;5048966;28;20416;-64
2021/04/26 11:29:04;;;;;;;8.90;4.17;;;;;;;;;;5049708;28;20504;-64
2021/04/26 11:31:42;;;;;;;9.43;4.20;;;;;;;;;;5054125;28;20429;-63
2021/04/26 11:34:11;;;;;;;5.40;4.27;;;;;;;;;;5052786;28;20498;-64
2021/04/26 11:36:38;;;;;;;8.40;4.27;;;;;;;;;;5049621;28;20561;-64
2021/04/26 11:39:08;;;;;;;8.17;4.33;;;;;;;;;;5049607;28;21825;-63
2021/04/26 11:41:46;;;;;;;4.77;4.10;;;;;;;;;;5052558;28;20420;-63
2021/04/26 11:44:12;;;;;;;5.90;4.30;;;;;;;;;;5060392;28;20534;-63
2021/04/26 11:46:39;;;;;;;5.53;4.20;;;;;;;;;;5056922;28;20435;-63
2021/04/26 11:49:11;;;;;;;5.63;3.77;;;;;;;;;;5058767;28;20819;-64
2021/04/26 11:51:38;;;;;;;6.23;3.60;;;;;;;;;;5050447;28;20422;-64
2021/04/26 11:54:11;;;;;;;5.57;3.80;;;;;;;;;;5052953;28;20532;-64
2021/04/26 11:56:37;;;;;;;8.40;3.40;;;;;;;;;;5075191;28;20445;-63
2021/04/26 11:59:07;;;;;;;7.63;4.80;;;;;;;;;;5050515;28;20986;-63
2021/04/26 12:01:33;;;;;;;5.30;3.73;;;;;;;;;;5053600;28;20455;-64
2021/04/26 12:03:59;;;;;;;7.17;4.30;;;;;;;;;;5054324;28;20443;-64
2021/04/26 12:06:27;;;;;;;6.40;4.00;;;;;;;;;;5062458;28;20474;-63
2021/04/26 12:08:54;;;;;;;9.80;4.20;;;;;;;;;;5052941;28;20867;-64
2021/04/26 12:11:21;;;;;;;5.90;3.90;;;;;;;;;;5059567;28;20501;-64
2021/04/26 12:14:10;;;;;;;7.47;4.20;;;;;;;;;;5051383;28;20441;-64
2021/04/26 12:16:36;;;;;;;7.37;4.80;;;;;;;;;;5045415;28;20487;-64
2021/04/26 12:19:03;;;;;;;5.20;4.67;;;;;;;;;;5051294;28;20492;-63
2021/04/26 12:21:29;;;;;;;6.13;4.23;;;;;;;;;;5066859;28;20424;-63
2021/04/26 12:23:55;;;;;;;7.90;4.00;;;;;;;;;;5057555;28;20461;-63
2021/04/26 12:26:21;;;;;;;10.53;4.73;;;;;;;;;;5053135;28;20482;-64
2021/04/26 12:28:48;;;;;;;8.37;4.00;;;;;;;;;;5052614;28;20429;-64
2021/04/26 12:31:18;;;;;;;4.90;4.00;;;;;;;;;;5055221;28;20939;-63
2021/04/26 12:33:44;;;;;;;5.70;4.30;;;;;;;;;;5057765;28;20437;-64
2021/04/26 12:36:10;;;;;;;7.70;4.10;;;;;;;;;;5056303;28;20459;-63
2021/04/26 12:38:37;;;;;;;6.83;3.90;;;;;;;;;;5056285;28;20441;-63
2021/04/26 12:41:03;;;;;;;6.20;4.13;;;;;;;;;;5063190;28;20405;-63
2021/04/26 12:43:40;;;;;;;8.20;4.23;;;;;;;;;;5051848;28;20453;-64
2021/04/26 12:46:10;;;;;;;6.90;3.90;;;;;;;;;;5054688;28;20401;-63
2021/04/26 12:48:36;;;;;;;4.57;3.50;;;;;;;;;;5067333;28;20947;-62
2021/04/26 12:51:03;;;;;;;4.90;3.60;;;;;;;;;;5056913;28;20974;-62
2021/04/26 12:53:31;;;;;;;5.57;4.50;;;;;;;;;;5051517;28;20463;-64
2021/04/26 12:56:03;;;;;;;8.97;4.40;;;;;;;;;;5061916;28;20453;-64
2021/04/26 12:58:32;;;;;;;7.07;4.10;;;;;;;;;;5051552;28;20444;-64
2021/04/26 13:00:59;;;;;;;8.70;3.10;;;;;;;;;;5052127;28;20417;-64
2021/04/26 13:03:25;;;;;;;9.00;3.97;;;;;;;;;;5053446;28;20871;-64
2021/04/26 13:06:12;;;;;;;6.10;3.90;;;;;;;;;;5053854;28;20416;-64
2021/04/26 13:08:42;;;;;;;4.73;3.63;;;;;;;;;;5052700;28;20432;-64
2021/04/26 13:11:09;;;;;;;6.13;4.47;;;;;;;;;;5055124;28;20424;-64
2021/04/26 13:13:52;;;;;;;4.70;3.70;;;;;;;;;;5066079;28;20543;-64
2021/04/26 13:16:19;;;;;;;9.07;3.90;;;;;;;;;;5052534;28;20449;-64
2021/04/26 13:18:49;;;;;;;4.90;3.80;;;;;;;;;;5051488;28;20427;-63
2021/04/26 13:21:15;;;;;;;7.50;4.00;;;;;;;;;;5056258;28;20909;-64
2021/04/26 13:23:41;;;;;;;10.13;4.17;;;;;;;;;;5042819;28;20562;-64
2021/04/26 13:26:25;;;;;;;7.47;4.37;;;;;;;;;;5063770;28;20419;-63
2021/04/26 13:28:51;;;;;;;5.10;3.73;;;;;;;;;;5052712;28;20418;-63
2021/04/26 13:31:19;;;;;;;8.90;4.87;;;;;;;;;;5052962;28;20467;-63
2021/04/26 13:33:45;;;;;;;6.20;3.90;;;;;;;;;;5053802;28;20452;-64
2021/04/26 13:36:11;;;;;;;5.33;3.60;;;;;;;;;;5050072;28;20827;-63
2021/04/26 13:38:37;;;;;;;7.63;4.00;;;;;;;;;;5051613;28;20444;-64
2021/04/26 13:41:03;;;;;;;5.43;3.70;;;;;;;;;;5063559;28;20420;-64
2021/04/26 13:43:29;;;;;;;5.20;3.57;;;;;;;;;;5069477;28;20429;-64
2021/04/26 13:45:55;;;;;;;5.83;4.10;;;;;;;;;;5054741;28;20449;-63
2021/04/26 13:48:22;;;;;;;6.63;3.83;;;;;;;;;;5058400;28;20426;-64
2021/04/26 13:50:48;;;;;;;5.23;4.10;;;;;;;;;;5054603;28;20426;-62
2021/04/26 13:53:14;;;;;;;7.43;3.80;;;;;;;;;;5063596;28;20433;-63
2021/04/26 13:55:40;;;;;;;6.27;4.67;;;;;;;;;;5053166;28;20561;-62
2021/04/26 13:58:06;;;;;;;5.90;4.10;;;;;;;;;;5062992;28;20509;-63
2021/04/26 14:00:34;;;;;;;6.20;4.50;;;;;;;;;;5052446;28;20418;-63
2021/04/26 14:03:00;;;;;;;13.37;4.70;;;;;;;;;;5054960;28;20433;-63
2021/04/26 14:05:26;;;;;;;9.50;4.83;;;;;;;;;;5046924;28;20430;-67
2021/04/26 14:07:52;;;;;;;7.20;4.57;;;;;;;;;;5056624;28;20458;-66
2021/04/26 14:10:19;;;;;;;7.60;5.00;;;;;;;;;;5056295;28;20468;-65
2021/04/26 14:12:45;;;;;;;5.70;3.40;;;;;;;;;;5061124;28;20421;-67
2021/04/26 14:15:11;;;;;;;8.73;5.23;;;;;;;;;;5059754;28;20449;-66
2021/04/26 14:17:37;;;;;;;7.25;4.57;;;;;;;;;;5059219;28;20418;-64
2021/04/26 14:20:05;;;;;;;7.80;4.27;;;;;;;;;;5050272;28;20542;-63
2021/04/26 14:22:31;;;;;;;4.80;4.37;;;;;;;;;;5036786;28;20402;-63
2021/04/26 14:24:58;;;;;;;7.23;4.13;;;;;;;;;;5053681;28;20521;-63
2021/04/26 14:27:24;;;;;;;6.63;3.53;;;;;;;;;;5061475;28;20398;-60
2021/04/26 14:29:50;;;;;;;7.03;4.13;;;;;;;;;;5060563;28;20430;-61
2021/04/26 14:32:16;;;;;;;4.70;3.00;;;;;;;;;;5063527;28;21046;-60
2021/04/26 14:34:43;;;;;;;6.60;3.70;;;;;;;;;;5062843;28;20441;-62
2021/04/26 14:37:09;;;;;;;8.80;4.30;;;;;;;;;;5051419;28;20478;-61
2021/04/26 14:39:35;;;;;;;9.90;4.20;;;;;;;;;;5038202;28;20500;-63
2021/04/26 14:42:01;;;;;;;7.27;4.43;;;;;;;;;;5061704;28;20907;-60
2021/04/26 14:44:28;;;;;;;6.27;4.33;;;;;;;;;;5047001;28;20796;-62
2021/04/26 14:46:54;;;;;;;7.07;4.67;;;;;;;;;;5039661;28;20410;-61
2021/04/26 14:49:20;;;;;;;11.10;4.10;;;;;;;;;;5037338;28;20437;-62